Time;durP1;ratioP1;P1;durP2;ratioP2;P2;SDS_P1;SDS_P2;PMS_P1;PMS_P2;Temp;Humidity;BMP_temperature;BMP_pressure;BME280_temperature;BME280_humidity;BME280_pressure;Samples;Min_cycle;Max_cycle;Signal;HPM_P1;HPM_P2
2022/12/08 00:01:33;;;;;;;60.03;25.63;;;;;;;4.30;76.92;94980.06;5011246;28;20466;-84
2022/12/08 00:04:00;;;;;;;57.08;24.00;;;;;;;4.87;76.96;95056.84;5006636;28;20030;-85
2022/12/08 00:09:21;;;;;;;60.85;24.40;;;;;;;3.97;76.64;94925.75;5002814;28;20040;-85
2022/12/08 00:12:01;;;;;;;57.88;23.42;;;;;;;3.82;76.95;94911.31;5002733;28;20037;-85
2022/12/08 00:14:32;;;;;;;53.47;22.65;;;;;;;4.45;76.82;95009.97;5004747;28;20033;-85
2022/12/08 00:16:59;;;;;;;63.42;24.13;;;;;;;3.77;76.67;94906.00;5008265;28;20137;-85
2022/12/08 00:19:25;;;;;;;62.80;25.42;;;;;;;4.46;76.70;95019.44;5009191;28;20129;-85
2022/12/08 00:21:53;;;;;;;63.35;25.35;;;;;;;4.89;76.10;95088.91;4991290;28;20054;-85
2022/12/08 00:24:20;;;;;;;59.30;24.67;;;;;;;4.20;76.35;95023.47;4996244;28;20044;-84
2022/12/08 00:26:46;;;;;;;56.50;26.15;;;;;;;4.59;76.49;95087.41;5008637;28;20037;-84
2022/12/08 00:29:12;;;;;;;54.85;26.00;;;;;;;4.50;76.43;95070.44;4996963;28;20026;-85
2022/12/08 00:31:38;;;;;;;67.82;26.42;;;;;;;3.68;76.61;94943.34;5009159;28;20030;-83
2022/12/08 00:34:03;;;;;;;53.22;24.10;;;;;;;4.21;76.38;95024.28;4992142;28;20046;-84
2022/12/08 00:36:29;;;;;;;57.78;26.08;;;;;;;4.12;76.57;95009.97;5000966;28;20034;-84
2022/12/08 00:38:56;;;;;;;57.20;25.45;;;;;;;4.70;77.05;95101.50;5006020;28;20121;-84
2022/12/08 00:42:10;;;;;;;62.95;27.55;;;;;;;3.71;76.26;94946.31;5009463;28;20040;-84
2022/12/08 00:44:10;;;;;;;57.42;26.58;;;;;;;4.68;76.83;95100.94;5008719;28;20045;-84
2022/12/08 00:46:36;;;;;;;55.00;26.05;;;;;;;4.65;76.39;95114.56;4991062;28;20125;-84
2022/12/08 00:49:02;;;;;;;53.83;26.92;;;;;;;3.56;77.69;94971.47;5007650;28;20121;-84
2022/12/08 00:51:28;;;;;;;67.65;27.88;;;;;;;4.51;77.79;95098.28;5007440;28;20030;-84
2022/12/08 00:53:53;;;;;;;59.97;28.48;;;;;;;4.05;77.42;95009.28;5007895;28;20100;-84
2022/12/08 00:56:19;;;;;;;71.63;29.63;;;;;;;3.37;78.04;94928.88;4990363;28;20042;-84
2022/12/08 00:58:44;;;;;;;62.60;26.83;;;;;;;4.25;78.45;95096.28;4995713;28;20030;-84
2022/12/08 01:01:10;;;;;;;53.58;26.17;;;;;;;4.42;78.12;95085.81;5000720;28;20038;-87
2022/12/08 01:03:36;;;;;;;57.35;25.35;;;;;;;3.99;77.72;95013.66;5006615;28;20049;-87
2022/12/08 01:06:03;;;;;;;61.97;26.05;;;;;;;4.56;77.61;95090.53;5011151;28;20041;-87
2022/12/08 01:08:28;;;;;;;67.20;27.20;;;;;;;4.25;77.97;95055.09;5002343;28;20477;-87
2022/12/08 01:10:54;;;;;;;62.20;24.35;;;;;;;4.60;78.08;95088.19;5005533;28;20037;-87
2022/12/08 01:13:19;;;;;;;49.85;24.88;;;;;;;4.17;78.14;95031.03;5009714;28;20049;-89
2022/12/08 01:15:44;;;;;;;54.40;24.38;;;;;;;3.95;78.02;94980.28;5018195;28;20044;-86
2022/12/08 01:18:10;;;;;;;53.42;23.95;;;;;;;3.86;77.52;94972.00;5059345;28;20044;-87
2022/12/08 01:20:35;;;;;;;51.50;23.60;;;;;;;4.32;77.69;95048.88;5058237;28;20409;-87
2022/12/08 01:23:01;;;;;;;50.17;23.55;;;;;;;3.52;77.57;94916.06;5055959;28;20063;-87
2022/12/08 01:25:26;;;;;;;55.05;25.08;;;;;;;4.16;77.60;95008.44;5038826;28;20056;-87
2022/12/08 01:27:52;;;;;;;56.88;24.83;;;;;;;4.04;78.03;95021.66;5020703;28;20040;-88
2022/12/08 01:30:18;;;;;;;49.15;23.27;;;;;;;3.34;77.71;94890.06;5037265;28;20655;-88
2022/12/08 01:32:44;;;;;;;54.65;24.02;;;;;;;4.22;77.29;95023.25;5037248;28;20040;-88
2022/12/08 01:35:09;;;;;;;52.20;24.17;;;;;;;3.78;77.57;94940.91;5042187;28;20032;-88
2022/12/08 01:37:35;;;;;;;46.15;22.33;;;;;;;4.19;77.70;95021.09;5039080;28;20037;-87
2022/12/08 01:40:00;;;;;;;48.50;20.77;;;;;;;4.01;77.96;95003.75;5051425;28;20041;-87
2022/12/08 01:42:26;;;;;;;50.17;22.58;;;;;;;3.85;78.07;94968.56;5043678;28;20088;-87
2022/12/08 01:45:01;;;;;;;52.28;22.27;;;;;;;3.81;78.04;94964.81;5038830;28;20079;-88
2022/12/08 01:47:33;;;;;;;47.67;21.25;;;;;;;3.90;78.07;94970.47;5056831;28;20106;-87
2022/12/08 01:49:59;;;;;;;49.10;23.25;;;;;;;3.37;78.28;94882.50;5056271;28;20098;-88
2022/12/08 01:52:56;;;;;;;45.85;22.95;;;;;;;4.56;78.27;95073.97;5056591;28;20029;-87
2022/12/08 01:55:25;;;;;;;51.22;22.92;;;;;;;4.61;77.63;95066.16;5031108;28;20479;-88
2022/12/08 01:57:56;;;;;;;61.70;24.98;;;;;;;3.72;78.35;94913.00;5038116;28;20105;-88
2022/12/08 02:00:23;;;;;;;47.67;22.67;;;;;;;4.58;78.06;95058.75;5038116;28;20040;-89
2022/12/08 02:02:53;;;;;;;53.85;23.33;;;;;;;3.44;78.54;94917.22;5056237;28;20052;-87
2022/12/08 02:05:22;;;;;;;50.38;22.05;;;;;;;3.25;78.52;94858.19;5030542;28;20112;-88
2022/12/08 02:07:48;;;;;;;51.05;23.20;;;;;;;3.68;78.39;94923.16;5041660;28;20545;-88
2022/12/08 02:10:18;;;;;;;59.25;25.95;;;;;;;4.35;78.54;95062.31;5034435;28;20036;-88
2022/12/08 02:12:46;;;;;;;51.30;26.02;;;;;;;3.92;78.84;95012.22;5038928;28;20037;-87
2022/12/08 02:15:12;;;;;;;59.85;27.08;;;;;;;4.24;79.45;95050.84;5030964;28;20507;-88
2022/12/08 02:18:16;;;;;;;59.33;27.15;;;;;;;4.30;79.63;95061.44;5026936;28;20057;-89
2022/12/08 02:20:58;;;;;;;54.53;25.35;;;;;;;4.05;79.05;95017.16;5004885;28;20053;-88
2022/12/08 02:24:11;;;;;;;60.60;23.70;;;;;;;4.34;79.06;95058.13;5042201;28;20037;-88
2022/12/08 02:26:52;;;;;;;50.30;23.35;;;;;;;3.34;79.07;94890.06;5050081;28;20037;-88
2022/12/08 02:29:35;;;;;;;55.53;25.02;;;;;;;4.32;78.73;95048.88;5035685;28;20033;-89
2022/12/08 02:32:10;;;;;;;58.15;25.77;;;;;;;4.27;78.71;95049.59;5036549;28;20037;-87
2022/12/08 02:34:56;;;;;;;64.07;25.98;;;;;;;4.32;78.29;95054.13;5023042;28;20091;-87
2022/12/08 02:37:30;;;;;;;52.40;25.58;;;;;;;4.34;78.48;95052.88;5053952;28;20024;-88
2022/12/08 02:40:22;;;;;;;58.92;24.05;;;;;;;3.79;78.04;94972.16;5056772;28;20061;-85
2022/12/08 02:42:56;;;;;;;53.28;24.02;;;;;;;4.30;78.09;95049.09;5015858;28;20095;-85
2022/12/08 02:45:23;;;;;;;54.80;24.80;;;;;;;4.33;78.02;95055.72;5034907;28;20036;-85
2022/12/08 02:47:50;;;;;;;54.63;25.10;;;;;;;2.95;78.02;94849.78;5042278;28;20045;-85
2022/12/08 02:50:16;;;;;;;56.40;26.23;;;;;;;3.75;77.69;94947.41;5051010;28;20029;-85
2022/12/08 02:52:46;;;;;;;52.85;25.77;;;;;;;3.94;77.36;95005.72;5033555;28;20548;-85
2022/12/08 02:55:27;;;;;;;56.10;25.50;;;;;;;4.25;77.86;95038.53;5051467;28;20486;-84
2022/12/08 02:58:24;;;;;;;60.30;26.70;;;;;;;4.26;77.96;95038.31;5047851;28;20376;-84
2022/12/08 03:01:16;;;;;;;57.38;25.65;;;;;;;4.22;78.53;95045.03;5059362;28;20092;-84
2022/12/08 03:04:07;;;;;;;52.38;23.75;;;;;;;4.22;78.17;95041.63;5030128;28;20032;-84
2022/12/08 03:06:53;;;;;;;55.10;24.42;;;;;;;4.03;77.78;95035.00;5065157;28;20029;-83
2022/12/08 03:09:38;;;;;;;56.75;24.60;;;;;;;4.17;77.40;95059.91;5049748;28;20070;-83
2022/12/08 03:12:23;;;;;;;52.72;23.33;;;;;;;4.20;77.67;95062.84;5060185;28;20036;-83
2022/12/08 03:14:52;;;;;;;51.72;24.25;;;;;;;3.58;77.87;94954.47;5052543;28;20041;-84
2022/12/08 03:17:22;;;;;;;56.10;26.98;;;;;;;3.46;77.58;94949.25;5046552;28;20403;-83
2022/12/08 03:19:48;;;;;;;50.55;23.65;;;;;;;3.46;77.85;94974.69;5053132;28;20116;-83
2022/12/08 03:22:18;;;;;;;55.92;25.17;;;;;;;2.96;77.58;94880.19;5032420;28;20041;-83
2022/12/08 03:24:45;;;;;;;49.42;24.17;;;;;;;4.06;77.29;95045.81;5032330;28;20051;-83
2022/12/08 03:27:20;;;;;;;54.20;22.75;;;;;;;3.59;77.57;94999.81;5038100;28;20426;-83
2022/12/08 03:29:48;;;;;;;50.17;24.30;;;;;;;3.70;77.44;95005.03;5036570;28;20463;-83
2022/12/08 03:32:27;;;;;;;46.42;22.45;;;;;;;4.01;77.47;95039.69;5043217;28;20066;-83
2022/12/08 03:34:55;;;;;;;46.55;23.45;;;;;;;3.20;78.09;94922.81;5047136;28;20044;-83
2022/12/08 03:37:20;;;;;;;64.57;25.52;;;;;;;3.96;78.38;95037.78;5046643;28;20036;-83
2022/12/08 03:39:46;;;;;;;55.38;25.38;;;;;;;3.84;78.64;95010.78;5029121;28;20512;-83
2022/12/08 03:42:12;;;;;;;57.15;26.83;;;;;;;3.89;78.37;95003.78;5045539;28;20037;-83
2022/12/08 03:44:37;;;;;;;59.42;26.90;;;;;;;3.43;78.22;94933.97;5060361;28;20075;-83
2022/12/08 03:47:03;;;;;;;59.42;28.05;;;;;;;3.25;78.72;94959.59;5065076;28;20059;-83
2022/12/08 03:49:28;;;;;;;57.15;25.92;;;;;;;4.05;78.67;95057.34;5046559;28;20403;-83
2022/12/08 03:51:54;;;;;;;54.90;25.88;;;;;;;3.45;78.39;94945.03;5045367;28;20123;-83
2022/12/08 03:54:19;;;;;;;62.45;26.65;;;;;;;4.17;78.35;95057.28;5036362;28;20116;-83
2022/12/08 03:56:45;;;;;;;53.33;24.23;;;;;;;2.65;77.92;94813.34;5061579;28;20065;-83
2022/12/08 03:59:10;;;;;;;52.58;24.02;;;;;;;4.21;77.82;95066.28;5035973;28;20072;-84
2022/12/08 04:01:36;;;;;;;56.30;24.80;;;;;;;3.37;77.89;94928.88;5045219;28;20038;-84
2022/12/08 04:04:01;;;;;;;57.42;24.77;;;;;;;3.32;77.88;94928.81;5049677;28;20037;-84
2022/12/08 04:06:28;;;;;;;53.88;24.35;;;;;;;3.38;77.45;94940.97;5026947;28;20411;-84
2022/12/08 04:08:53;;;;;;;53.40;25.83;;;;;;;4.20;77.79;95051.56;5045607;28;20049;-84
2022/12/08 04:11:19;;;;;;;57.05;27.60;;;;;;;2.72;78.06;94819.22;5042044;28;20035;-84
2022/12/08 04:13:45;;;;;;;51.38;23.77;;;;;;;3.64;77.78;94958.75;5065593;28;20047;-83
2022/12/08 04:16:15;;;;;;;62.45;26.10;;;;;;;4.23;77.69;95067.63;5029301;28;20061;-84
2022/12/08 04:18:41;;;;;;;61.53;27.65;;;;;;;4.23;77.47;95077.34;5040403;28;20510;-83
2022/12/08 04:21:06;;;;;;;55.20;25.55;;;;;;;3.66;77.86;94985.53;5042035;28;20037;-83
2022/12/08 04:23:32;;;;;;;61.65;26.45;;;;;;;3.97;77.81;95025.44;5066217;28;20059;-83
2022/12/08 04:25:57;;;;;;;55.05;27.80;;;;;;;3.92;77.63;95041.09;5044229;28;20574;-83
2022/12/08 04:28:23;;;;;;;57.10;25.48;;;;;;;3.98;77.94;95050.63;5056060;28;20022;-83
2022/12/08 04:30:48;;;;;;;54.55;25.85;;;;;;;3.47;77.80;94952.69;5066456;28;20040;-83
2022/12/08 04:33:14;;;;;;;63.15;28.42;;;;;;;4.18;78.23;95090.38;5053692;28;20039;-83
2022/12/08 04:35:39;;;;;;;60.00;26.38;;;;;;;4.08;78.35;95069.19;5064706;28;20048;-83
2022/12/08 04:38:05;;;;;;;58.17;27.70;;;;;;;4.14;78.36;95068.25;5043730;28;20037;-83
2022/12/08 04:40:30;;;;;;;50.47;26.60;;;;;;;3.11;78.04;94909.28;5064885;28;20033;-83
2022/12/08 04:42:56;;;;;;;64.57;28.50;;;;;;;3.16;78.19;94911.19;5045506;28;20044;-83
2022/12/08 04:45:21;;;;;;;72.22;26.77;;;;;;;3.57;77.84;94971.22;5064663;28;20029;-83
2022/12/08 04:47:47;;;;;;;59.47;28.10;;;;;;;4.25;77.48;95072.66;5065891;28;20037;-83
2022/12/08 04:50:12;;;;;;;57.65;26.58;;;;;;;3.13;78.08;94894.09;5068346;28;20028;-83
2022/12/08 04:52:38;;;;;;;56.83;27.50;;;;;;;4.30;78.18;95071.94;5062465;28;20099;-83
2022/12/08 04:55:04;;;;;;;55.45;26.67;;;;;;;3.57;78.26;94981.72;5041419;28;20458;-84
2022/12/08 04:57:30;;;;;;;66.18;27.35;;;;;;;3.46;78.36;94938.78;5059421;28;20033;-84
2022/12/08 04:59:55;;;;;;;63.95;28.17;;;;;;;3.26;78.36;94908.78;5067671;28;20480;-84
2022/12/08 05:02:20;;;;;;;63.33;29.23;;;;;;;4.16;78.65;95045.19;5049657;28;20037;-84
2022/12/08 05:04:46;;;;;;;63.05;27.83;;;;;;;4.21;78.63;95042.66;5046955;28;20029;-83
2022/12/08 05:07:11;;;;;;;70.05;28.38;;;;;;;3.46;78.58;94953.69;5056970;28;20052;-84
2022/12/08 05:09:37;;;;;;;68.28;30.77;;;;;;;3.72;78.24;94974.13;5072201;28;20025;-84
2022/12/08 05:12:03;;;;;;;76.28;33.25;;;;;;;4.18;78.15;95035.25;5044465;28;20021;-83
2022/12/08 05:14:28;;;;;;;87.93;34.95;;;;;;;4.17;78.60;95031.03;5047588;28;20025;-84
2022/12/08 05:16:54;;;;;;;77.22;33.70;;;;;;;3.93;78.79;94996.25;5063740;28;20048;-83
2022/12/08 05:19:19;;;;;;;85.13;36.58;;;;;;;4.40;78.83;95091.28;5062044;28;20025;-83
2022/12/08 05:21:45;;;;;;;84.35;36.90;;;;;;;3.68;78.67;94991.34;5046206;28;20120;-84
2022/12/08 05:24:10;;;;;;;78.03;33.35;;;;;;;3.74;78.97;95021.88;5041291;28;20124;-84
2022/12/08 05:26:36;;;;;;;81.68;33.60;;;;;;;3.18;79.05;94961.56;5038910;28;20321;-84
2022/12/08 05:29:02;;;;;;;79.53;33.33;;;;;;;3.55;79.32;95014.44;5029037;28;20037;-84
2022/12/08 05:31:27;;;;;;;69.93;32.50;;;;;;;3.65;79.38;95010.19;5040069;28;20139;-84
2022/12/08 05:33:53;;;;;;;71.15;29.83;;;;;;;3.43;78.68;94954.97;5048136;28;20025;-84
2022/12/08 05:36:19;;;;;;;62.95;31.52;;;;;;;3.73;78.41;95009.81;5034774;28;20037;-84
2022/12/08 05:38:45;;;;;;;65.85;32.13;;;;;;;4.11;78.50;95068.75;5035295;28;20116;-84
2022/12/08 05:41:17;;;;;;;65.57;29.90;;;;;;;4.28;78.96;95106.28;5055109;28;20037;-84
2022/12/08 05:43:43;;;;;;;61.20;30.17;;;;;;;3.63;78.31;95004.38;5041012;28;20025;-84
2022/12/08 05:46:09;;;;;;;72.55;30.05;;;;;;;3.45;77.93;94968.63;5038782;28;20287;-84
2022/12/08 05:48:35;;;;;;;64.15;30.15;;;;;;;4.09;77.87;95055.03;5056772;28;20034;-84
2022/12/08 05:51:01;;;;;;;72.55;31.40;;;;;;;3.92;78.07;95028.75;5056259;28;20084;-85
2022/12/08 05:53:27;;;;;;;60.60;28.48;;;;;;;4.23;78.04;95091.25;5038534;28;20406;-84
2022/12/08 05:55:52;;;;;;;60.75;30.05;;;;;;;3.61;78.54;95006.44;5036376;28;20577;-83
2022/12/08 05:58:20;;;;;;;57.08;27.92;;;;;;;4.23;78.21;95086.00;5041189;28;20037;-84
2022/12/08 06:00:47;;;;;;;67.47;30.73;;;;;;;2.98;78.22;94902.47;5038639;28;20021;-84
2022/12/08 06:03:14;;;;;;;70.70;30.63;;;;;;;3.54;77.81;94997.09;5035624;28;20124;-85
2022/12/08 06:05:41;;;;;;;73.00;32.22;;;;;;;4.33;78.00;95123.97;5061900;28;20384;-85
2022/12/08 06:08:06;;;;;;;70.70;30.80;;;;;;;3.92;78.42;95060.25;5054070;28;20028;-83
2022/12/08 06:10:32;;;;;;;73.82;32.47;;;;;;;3.40;78.39;95004.44;5038725;28;20076;-83
2022/12/08 06:12:58;;;;;;;68.38;31.00;;;;;;;4.34;78.71;95125.59;5035884;28;20040;-83
2022/12/08 06:15:24;;;;;;;81.03;32.75;;;;;;;3.48;78.76;95006.72;5051639;28;20053;-83
2022/12/08 06:17:52;;;;;;;74.05;34.05;;;;;;;1.68;79.02;94732.06;5055394;28;20319;-83
2022/12/08 06:20:18;;;;;;;93.05;36.80;;;;;;;4.03;79.10;95111.09;5035263;28;20033;-84
2022/12/08 06:22:43;;;;;;;111.22;39.38;;;;;;;4.02;79.38;95112.94;5054138;28;20040;-84
2022/12/08 06:25:09;;;;;;;103.57;39.20;;;;;;;3.98;79.19;95106.53;5039620;28;20025;-83
2022/12/08 06:27:34;;;;;;;85.05;38.67;;;;;;;3.40;79.62;95052.44;5054348;28;20025;-84
2022/12/08 06:30:00;;;;;;;83.30;39.03;;;;;;;3.61;79.25;95052.81;5056950;28;20024;-85
2022/12/08 06:32:25;;;;;;;76.05;33.42;;;;;;;3.43;79.10;95012.63;5034610;28;20124;-84
2022/12/08 06:34:51;;;;;;;82.32;36.53;;;;;;;3.99;79.15;95081.09;5050710;28;20032;-85
2022/12/08 06:37:17;;;;;;;81.13;39.85;;;;;;;3.60;78.84;95012.69;5035298;28;20036;-84
2022/12/08 06:39:42;;;;;;;80.40;37.28;;;;;;;4.32;78.81;95135.50;5031358;28;20022;-84
2022/12/08 06:44:52;;;;;;;79.82;35.28;;;;;;;3.98;79.27;95056.69;5049892;28;20040;-83
2022/12/08 06:47:19;;;;;;;73.35;35.70;;;;;;;4.40;79.15;95135.94;5047917;28;20032;-81
2022/12/08 06:49:45;;;;;;;80.25;37.35;;;;;;;4.43;78.89;95137.28;5044992;28;20029;-82
2022/12/08 06:52:10;;;;;;;80.25;35.80;;;;;;;3.59;78.97;94986.69;5027432;28;20032;-81
2022/12/08 06:54:36;;;;;;;76.70;35.65;;;;;;;3.57;78.97;94996.66;5044507;28;20044;-82
2022/12/08 06:57:01;;;;;;;73.75;33.33;;;;;;;4.36;79.46;95103.28;5046138;28;20039;-82
2022/12/08 06:59:26;;;;;;;96.13;34.55;;;;;;;4.27;79.20;95070.59;5047664;28;20036;-82
2022/12/08 07:01:52;;;;;;;73.80;34.08;;;;;;;4.27;79.38;95081.88;5022520;28;20072;-79
2022/12/08 07:04:17;;;;;;;77.78;33.60;;;;;;;3.83;79.50;95009.97;5039537;28;20048;-80
2022/12/08 07:06:43;;;;;;;81.93;34.75;;;;;;;4.21;79.20;95067.06;5013947;28;20021;-81
2022/12/08 07:09:08;;;;;;;83.90;34.92;;;;;;;4.32;79.27;95070.69;5017079;28;20407;-81
2022/12/08 07:11:33;;;;;;;69.70;31.05;;;;;;;3.49;79.35;94950.63;5020898;28;20094;-81
2022/12/08 07:13:59;;;;;;;69.68;31.67;;;;;;;4.78;79.22;95143.16;5011812;28;20094;-81
2022/12/08 07:16:24;;;;;;;76.32;33.67;;;;;;;4.08;79.80;95046.38;5035524;28;20044;-83
2022/12/08 07:18:50;;;;;;;70.10;29.95;;;;;;;4.32;79.80;95083.00;5041233;28;20028;-80
2022/12/08 07:21:16;;;;;;;67.57;31.45;;;;;;;4.36;80.35;95098.03;5005207;28;20487;-80
2022/12/08 07:23:46;;;;;;;78.32;34.90;;;;;;;3.81;80.43;95040.13;5038126;28;20090;-80
2022/12/08 07:26:12;;;;;;;84.10;35.22;;;;;;;4.42;80.74;95146.22;5025656;28;20047;-81
2022/12/08 07:28:39;;;;;;;86.00;37.95;;;;;;;4.31;80.36;95120.78;5045018;28;20629;-80
2022/12/08 07:31:06;;;;;;;89.70;42.22;;;;;;;3.92;80.82;95075.19;5023531;28;20068;-79
2022/12/08 07:33:33;;;;;;;98.38;43.63;;;;;;;4.06;81.22;95102.75;5029659;28;20029;-81
2022/12/08 07:36:00;;;;;;;93.10;41.47;;;;;;;4.61;80.80;95179.91;5025309;28;20124;-81
2022/12/08 07:38:27;;;;;;;90.70;41.50;;;;;;;4.60;80.71;95173.06;5046304;28;20022;-82
2022/12/08 07:40:53;;;;;;;100.88;42.75;;;;;;;4.73;80.93;95177.19;5047845;28;20470;-81
2022/12/08 07:43:19;;;;;;;91.53;44.30;;;;;;;4.84;80.79;95168.47;5026776;28;20032;-80
2022/12/08 07:45:45;;;;;;;98.63;45.35;;;;;;;4.89;80.00;95168.53;5027461;28;20128;-79
2022/12/08 07:48:11;;;;;;;115.05;45.60;;;;;;;4.86;79.91;95176.13;5028784;28;20140;-79
2022/12/08 07:50:38;;;;;;;97.85;39.90;;;;;;;4.43;79.75;95090.00;5046055;28;20040;-82
2022/12/08 07:53:05;;;;;;;89.60;41.17;;;;;;;3.88;79.37;94983.06;5045211;28;20032;-84
2022/12/08 07:55:31;;;;;;;87.53;41.00;;;;;;;4.87;79.45;95136.47;5027061;28;20484;-84
2022/12/08 07:57:56;;;;;;;102.30;42.28;;;;;;;4.62;79.28;95081.69;5048816;28;20029;-84
2022/12/08 08:00:22;;;;;;;100.07;44.88;;;;;;;4.68;78.75;95079.13;5032622;28;20040;-85
2022/12/08 08:02:47;;;;;;;87.40;40.40;;;;;;;4.93;79.00;95118.94;5030813;28;20229;-87
2022/12/08 08:05:16;;;;;;;89.82;42.72;;;;;;;4.90;78.37;95098.41;5033202;28;20107;-85
2022/12/08 08:07:42;;;;;;;89.53;41.15;;;;;;;4.68;78.59;95063.38;5046616;28;20036;-84
2022/12/08 08:10:10;;;;;;;88.90;41.60;;;;;;;4.97;78.69;95097.19;5025642;28;20033;-86
2022/12/08 08:12:36;;;;;;;87.78;38.00;;;;;;;4.97;79.00;95101.66;5024248;28;20033;-83
2022/12/08 08:15:06;;;;;;;82.07;36.17;;;;;;;5.24;78.72;95130.72;5030005;28;20051;-83
2022/12/08 08:17:33;;;;;;;84.20;36.75;;;;;;;4.73;78.79;95045.84;5047252;28;20598;-83
2022/12/08 08:19:59;;;;;;;79.72;33.53;;;;;;;4.85;78.91;95056.28;5042480;28;20029;-82
2022/12/08 08:22:25;;;;;;;80.75;34.85;;;;;;;4.63;79.11;95014.19;5023702;28;20099;-83
2022/12/08 08:24:51;;;;;;;74.80;34.50;;;;;;;4.91;79.24;95071.88;5038504;28;20110;-84
2022/12/08 08:27:16;;;;;;;74.75;33.88;;;;;;;5.11;78.74;95060.09;5023929;28;20063;-83
2022/12/08 08:29:42;;;;;;;78.82;34.00;;;;;;;5.21;78.49;95065.47;5047859;28;20500;-83
2022/12/08 08:32:07;;;;;;;81.50;36.33;;;;;;;5.54;78.08;95106.69;5043682;28;20029;-84
2022/12/08 08:34:33;;;;;;;78.85;35.05;;;;;;;6.10;78.44;95174.00;5024203;28;20051;-83
2022/12/08 08:36:58;;;;;;;81.63;34.13;;;;;;;5.10;78.28;95011.97;5023974;28;20047;-83
2022/12/08 08:39:23;;;;;;;69.30;29.95;;;;;;;6.22;77.75;95173.88;5029551;28;20044;-83
2022/12/08 08:41:49;;;;;;;69.47;30.33;;;;;;;5.87;77.88;95105.78;5045307;28;20446;-82
2022/12/08 08:44:14;;;;;;;66.18;29.45;;;;;;;6.37;77.45;95172.19;5045259;28;20112;-82
2022/12/08 08:46:40;;;;;;;59.33;28.25;;;;;;;5.94;76.96;95094.06;5017984;28;20029;-82
2022/12/08 08:49:06;;;;;;;59.15;27.75;;;;;;;5.77;76.38;95090.66;5047579;28;20294;-83
2022/12/08 08:51:32;;;;;;;50.85;26.77;;;;;;;4.76;76.58;94918.47;5045581;28;20048;-81
2022/12/08 08:53:57;;;;;;;61.90;29.42;;;;;;;6.03;76.43;95107.56;5030070;28;20079;-85
2022/12/08 08:56:23;;;;;;;70.20;33.78;;;;;;;6.39;75.91;95153.53;5033011;28;20045;-85
2022/12/08 08:58:50;;;;;;;64.80;33.17;;;;;;;6.39;75.86;95156.16;5015784;28;20081;-86
2022/12/08 09:01:18;;;;;;;74.28;35.92;;;;;;;5.63;75.61;95028.94;5030553;28;20066;-84
2022/12/08 09:03:44;;;;;;;58.08;27.95;;;;;;;6.54;76.10;95145.78;5023653;28;20102;-83
2022/12/08 09:06:10;;;;;;;70.18;29.60;;;;;;;5.73;76.10;95035.09;5023274;28;20747;-84
2022/12/08 09:08:35;;;;;;;64.32;29.25;;;;;;;6.14;75.94;95064.50;5025427;28;20037;-86
2022/12/08 09:11:00;;;;;;;56.47;26.27;;;;;;;4.89;76.01;94874.25;5046960;28;20092;-85
2022/12/08 09:13:26;;;;;;;66.32;25.40;;;;;;;6.01;76.39;95043.84;5030897;28;20039;-84
2022/12/08 09:15:51;;;;;;;52.40;25.23;;;;;;;6.36;76.01;95082.88;5046219;28;20033;-85
2022/12/08 09:18:17;;;;;;;47.47;23.90;;;;;;;5.25;75.22;94872.03;5047938;28;20037;-84
2022/12/08 09:20:42;;;;;;;46.97;22.40;;;;;;;6.89;74.87;95127.63;5029150;28;20033;-81
2022/12/08 09:23:08;;;;;;;42.97;21.00;;;;;;;6.40;74.44;95003.13;5022625;28;20097;-82
2022/12/08 09:25:33;;;;;;;46.20;22.45;;;;;;;6.00;74.69;94948.28;5047004;28;20045;-83
2022/12/08 09:27:58;;;;;;;48.50;21.85;;;;;;;6.40;74.73;94999.72;5028638;28;20036;-83
2022/12/08 09:30:24;;;;;;;54.92;21.73;;;;;;;6.87;74.59;95095.44;5049339;28;20032;-83
2022/12/08 09:32:51;;;;;;;50.85;20.45;;;;;;;6.73;74.17;95049.47;5045617;28;20029;-84
2022/12/08 09:35:16;;;;;;;42.50;19.35;;;;;;;6.27;74.00;94979.81;5055589;28;20037;-83
2022/12/08 09:37:42;;;;;;;47.47;22.27;;;;;;;7.06;73.56;95072.13;5026334;28;20036;-84
2022/12/08 09:40:10;;;;;;;50.40;23.58;;;;;;;6.39;72.99;94964.66;5053922;28;20060;-85
2022/12/08 09:42:42;;;;;;;46.17;22.40;;;;;;;7.00;72.85;95038.09;5035711;28;20191;-83
2022/12/08 09:45:11;;;;;;;54.45;25.02;;;;;;;7.30;72.83;95069.91;5051672;28;20028;-83
2022/12/08 09:47:42;;;;;;;56.20;24.88;;;;;;;7.55;72.54;95120.19;5047489;28;20029;-82
2022/12/08 09:50:36;;;;;;;62.88;28.08;;;;;;;7.42;72.66;95119.84;5026493;28;20105;-84
2022/12/08 09:53:18;;;;;;;128.65;55.78;;;;;;;7.47;72.46;95111.97;5044459;28;20067;-83
2022/12/08 09:55:48;;;;;;;125.10;59.33;;;;;;;7.52;72.57;95085.59;5050185;28;20111;-81
2022/12/08 09:58:52;;;;;;;121.95;58.35;;;;;;;7.70;72.64;95099.13;5045712;28;20954;-82
2022/12/08 10:01:20;;;;;;;72.75;31.35;;;;;;;7.87;72.27;95092.88;4991549;28;20613;-81
2022/12/08 10:03:46;;;;;;;68.18;34.15;;;;;;;7.40;72.48;95006.63;5043257;28;20021;-82
2022/12/08 10:06:20;;;;;;;80.72;35.55;;;;;;;8.03;72.03;95074.19;5032091;28;20227;-82
2022/12/08 10:09:30;;;;;;;77.60;37.90;;;;;;;8.02;72.20;95037.47;5045555;28;20120;-82
2022/12/08 10:12:23;;;;;;;79.22;35.70;;;;;;;8.89;71.87;95079.66;5044945;28;20037;-82
2022/12/08 10:15:10;;;;;;;70.25;31.98;;;;;;;9.33;70.47;95068.50;5055488;28;20032;-83
2022/12/08 10:17:59;;;;;;;61.45;30.88;;;;;;;9.82;68.17;95058.03;5036127;28;20435;-81
2022/12/08 10:20:39;;;;;;;72.70;28.30;;;;;;;9.69;65.88;94993.19;5056819;28;20033;-81
2022/12/08 10:23:11;;;;;;;56.10;26.52;;;;;;;10.49;64.34;95058.50;5038786;28;20033;-84
2022/12/08 10:25:47;;;;;;;;;;;;;;;10.53;63.54;95072.81;5041190;28;20139;-81
2022/12/08 10:28:14;;;;;;;47.65;24.38;;;;;;;10.15;63.21;94995.59;5049847;28;19954;-82
2022/12/08 10:30:40;;;;;;;45.42;22.08;;;;;;;10.69;62.33;95040.56;5047219;28;20033;-82
2022/12/08 10:33:13;;;;;;;39.17;21.05;;;;;;;10.47;61.69;94981.09;5030335;28;20120;-81
2022/12/08 10:35:53;;;;;;;40.63;21.60;;;;;;;10.44;61.77;94958.59;5035773;28;20025;-83
2022/12/08 10:38:28;;;;;;;43.20;22.25;;;;;;;10.60;61.22;94978.63;5055021;28;20055;-82
2022/12/08 10:41:03;;;;;;;47.20;22.73;;;;;;;11.22;61.25;95054.72;5047261;28;20033;-82
2022/12/08 10:43:31;;;;;;;44.22;23.27;;;;;;;10.97;61.37;95014.38;5050905;28;20033;-81
2022/12/08 10:46:12;;;;;;;46.03;23.35;;;;;;;11.14;61.40;95049.22;5048910;28;20069;-82
2022/12/08 10:49:08;;;;;;;46.17;22.30;;;;;;;10.95;61.01;95058.94;5031498;28;20037;-81
2022/12/08 10:51:37;;;;;;;47.45;21.60;;;;;;;10.81;61.11;95033.06;5049652;28;20517;-80
2022/12/08 10:54:05;;;;;;;38.90;20.67;;;;;;;10.48;61.04;95006.53;5031546;28;20094;-80
2022/12/08 10:56:32;;;;;;;35.03;17.73;;;;;;;10.55;61.46;95034.31;5044277;28;20040;-80
2022/12/08 10:59:17;;;;;;;39.47;19.48;;;;;;;10.42;61.97;95029.66;5024276;28;20029;-80
2022/12/08 11:01:48;;;;;;;42.33;19.52;;;;;;;10.26;62.03;95036.91;5027544;28;20029;-80
2022/12/08 11:04:35;;;;;;;41.72;18.52;;;;;;;9.67;63.20;94960.91;5022087;28;20037;-82
2022/12/08 11:07:04;;;;;;;31.65;17.17;;;;;;;9.53;63.60;94944.03;5045860;28;20021;-80
2022/12/08 11:09:40;;;;;;;41.75;20.48;;;;;;;9.19;63.80;94901.56;5010710;28;20451;-80
2022/12/08 11:12:18;;;;;;;43.67;20.95;;;;;;;9.93;64.18;95006.56;5026505;28;20459;-80
2022/12/08 11:14:43;;;;;;;46.70;20.98;;;;;;;9.97;64.47;95020.09;5021284;28;20034;-82
2022/12/08 11:17:29;;;;;;;36.75;17.80;;;;;;;9.54;64.53;94969.41;5028505;28;20167;-83
2022/12/08 11:20:20;;;;;;;44.38;21.08;;;;;;;8.28;65.52;94793.44;5029975;28;20151;-84
2022/12/08 11:22:52;;;;;;;36.92;19.70;;;;;;;8.51;65.99;94810.56;5053757;28;20463;-85
2022/12/08 11:25:23;;;;;;;37.58;18.90;;;;;;;9.53;65.68;94954.63;5038911;28;20032;-84
2022/12/08 11:27:56;;;;;;;39.10;19.20;;;;;;;7.47;66.02;94635.19;5038662;28;20108;-84
2022/12/08 11:30:38;;;;;;;38.88;19.02;;;;;;;9.81;66.17;94992.88;5031357;28;20582;-85
2022/12/08 11:33:28;;;;;;;46.92;19.30;;;;;;;9.74;65.79;94967.75;5048833;28;20133;-83
2022/12/08 11:36:03;;;;;;;34.45;18.70;;;;;;;7.68;65.75;94633.28;5052450;28;20092;-82
2022/12/08 11:38:32;;;;;;;47.70;18.92;;;;;;;10.02;66.13;94969.72;5052546;28;20224;-83
2022/12/08 11:41:07;;;;;;;31.25;16.88;;;;;;;9.74;65.04;94898.91;5029041;28;20158;-83